createdAt,value
2023-03-06T00:01:38.051Z,97538.28
2023-03-06T00:04:08.993Z,97538.63
2023-03-06T00:06:38.102Z,97542.22
2023-03-06T00:09:07.118Z,97535.03
2023-03-06T00:11:36.070Z,97539.41
2023-03-06T00:14:05.414Z,97535.03
2023-03-06T00:16:34.496Z,97543.38
2023-03-06T00:19:03.603Z,97544.56
2023-03-06T00:21:34.037Z,97534.22
2023-03-06T00:24:03.109Z,97545.34
2023-03-06T00:26:36.020Z,97540.56
2023-03-06T00:29:05.133Z,97532.25
2023-03-06T00:31:34.692Z,97523.09
2023-03-06T00:34:04.046Z,97516.31
2023-03-06T00:36:34.509Z,97516.31
2023-03-06T00:39:04.274Z,97506.38
2023-03-06T00:41:33.340Z,97508.00
2023-03-06T00:44:02.416Z,97513.09
2023-03-06T00:46:31.428Z,97519.00
2023-03-06T00:49:00.462Z,97520.16
2023-03-06T00:51:29.550Z,97507.88
2023-03-06T00:54:00.261Z,97511.84
2023-03-06T00:56:30.042Z,97509.44
2023-03-06T00:58:59.345Z,97511.03
2023-03-06T01:01:29.360Z,97511.06
2023-03-06T01:03:58.375Z,97497.94
2023-03-06T01:06:29.998Z,97503.91
2023-03-06T01:09:01.953Z,97507.09
2023-03-06T01:11:31.063Z,97495.59
2023-03-06T01:14:00.111Z,97503.13
2023-03-06T01:16:29.247Z,97501.53
2023-03-06T01:18:58.476Z,97488.84
2023-03-06T01:21:27.800Z,97479.28
2023-03-06T01:23:57.208Z,97476.16
2023-03-06T01:26:27.726Z,97474.19
2023-03-06T01:28:57.461Z,97469.81
2023-03-06T01:31:26.953Z,97467.44
2023-03-06T01:33:56.070Z,97469.03
2023-03-06T01:36:25.554Z,97475.38
2023-03-06T01:38:54.605Z,97474.59
2023-03-06T01:41:25.811Z,97469.84
2023-03-06T01:43:56.519Z,97473.03
2023-03-06T01:46:42.150Z,97472.22
2023-03-06T01:49:19.814Z,97471.41
2023-03-06T01:51:53.957Z,97471.47
2023-03-06T01:54:27.915Z,97472.66
2023-03-06T01:57:03.373Z,97465.09
2023-03-06T01:59:36.699Z,97465.13
2023-03-06T02:02:11.168Z,97458.72
2023-03-06T02:04:42.518Z,97461.47
2023-03-06T02:07:12.346Z,97460.66
2023-03-06T02:09:41.450Z,97448.34
2023-03-06T02:12:14.201Z,97445.97
2023-03-06T02:14:45.691Z,97440.03
2023-03-06T02:17:19.264Z,97436.44
2023-03-06T02:19:59.523Z,97436.44
2023-03-06T02:22:37.589Z,97434.81
2023-03-06T02:25:15.248Z,97419.72
2023-03-06T02:27:45.904Z,97415.75
2023-03-06T02:30:17.736Z,97414.13
2023-03-06T02:32:46.932Z,97411.75
2023-03-06T02:35:21.190Z,97403.81
2023-03-06T02:37:51.091Z,97402.22
2023-03-06T02:40:24.137Z,97400.63
2023-03-06T02:42:59.472Z,97403.00
2023-03-06T02:45:36.784Z,97398.22
2023-03-06T02:48:06.480Z,97400.56
2023-03-06T02:50:35.647Z,97410.03
2023-03-06T02:53:07.137Z,97402.88
2023-03-06T02:55:37.329Z,97408.84
2023-03-06T02:58:08.134Z,97410.81
2023-03-06T03:00:39.457Z,97405.25
2023-03-06T03:03:11.364Z,97401.31
2023-03-06T03:05:40.434Z,97400.53
2023-03-06T03:08:16.539Z,97394.56
2023-03-06T03:10:45.660Z,97394.97
2023-03-06T03:13:19.599Z,97395.31
2023-03-06T03:16:00.229Z,97395.63
2023-03-06T03:18:30.050Z,97391.66
2023-03-06T03:20:59.741Z,97393.25
2023-03-06T03:23:29.110Z,97388.56
2023-03-06T03:26:08.518Z,97391.78
2023-03-06T03:28:41.082Z,97391.00
2023-03-06T03:31:11.604Z,97384.66
2023-03-06T03:33:41.148Z,97381.91
2023-03-06T03:36:11.471Z,97381.56
2023-03-06T03:38:44.323Z,97385.53
2023-03-06T03:41:14.024Z,97381.56
2023-03-06T03:43:45.381Z,97380.72
2023-03-06T03:46:14.436Z,97374.38
2023-03-06T03:48:43.646Z,97377.13
2023-03-06T03:51:16.576Z,97379.50
2023-03-06T03:53:50.127Z,97376.31
2023-03-06T03:56:22.806Z,97372.81
2023-03-06T03:59:01.089Z,97371.09
2023-03-06T04:01:37.696Z,97371.09
2023-03-06T04:04:08.324Z,97372.72
2023-03-06T04:06:37.779Z,97359.25
2023-03-06T04:09:09.184Z,97367.13
2023-03-06T04:11:39.757Z,97368.34
2023-03-06T04:14:10.254Z,97367.97
2023-03-06T04:16:39.602Z,97361.59
2023-03-06T04:19:09.290Z,97371.16
2023-03-06T04:21:39.254Z,97366.34
2023-03-06T04:24:10.368Z,97356.81
2023-03-06T04:26:39.551Z,97356.84
2023-03-06T04:29:10.141Z,97348.50
2023-03-06T04:31:39.482Z,97348.88
2023-03-06T04:34:09.436Z,97345.69
2023-03-06T04:36:45.129Z,97343.31
2023-03-06T04:39:15.805Z,97340.19
2023-03-06T04:41:44.960Z,97336.19
2023-03-06T04:44:17.501Z,97331.47
2023-03-06T04:46:46.596Z,97335.81
2023-03-06T04:49:15.684Z,97323.56
2023-03-06T04:51:47.884Z,97327.53
2023-03-06T04:54:18.928Z,97322.38
2023-03-06T04:56:48.857Z,97324.38
2023-03-06T04:59:19.336Z,97323.13
2023-03-06T05:01:48.549Z,97327.47
2023-03-06T05:04:17.584Z,97329.81
2023-03-06T05:06:46.711Z,97317.16
2023-03-06T05:09:15.916Z,97325.13
2023-03-06T05:11:44.951Z,97321.53
2023-03-06T05:14:13.984Z,97317.16
2023-03-06T05:16:44.617Z,97305.66
2023-03-06T05:19:13.745Z,97320.38
2023-03-06T05:21:42.852Z,97316.41
2023-03-06T05:24:12.199Z,97314.78
2023-03-06T05:26:43.407Z,97313.97
2023-03-06T05:29:12.494Z,97313.16
2023-03-06T05:31:41.462Z,97315.50
2023-03-06T05:34:14.934Z,97311.53
2023-03-06T05:36:44.498Z,97309.13
2023-03-06T05:39:13.689Z,97296.47
2023-03-06T05:41:42.784Z,97302.03
2023-03-06T05:44:11.846Z,97305.22
2023-03-06T05:46:40.822Z,97307.63
2023-03-06T05:49:09.935Z,97307.22
2023-03-06T05:51:40.293Z,97308.41
2023-03-06T05:54:09.336Z,97308.81
2023-03-06T05:56:38.298Z,97310.00
2023-03-06T05:59:07.352Z,97312.06
2023-03-06T06:01:36.639Z,97308.50
2023-03-06T06:04:05.954Z,97305.38
2023-03-06T06:06:35.068Z,97305.03
2023-03-06T06:09:06.067Z,97299.88
2023-03-06T06:11:35.123Z,97309.44
2023-03-06T06:14:04.116Z,97304.69
2023-03-06T06:16:33.119Z,97307.88
2023-03-06T06:19:02.158Z,97302.72
2023-03-06T06:21:31.179Z,97299.19
2023-03-06T06:24:00.184Z,97309.09
2023-03-06T06:26:31.876Z,97304.34
2023-03-06T06:29:00.895Z,97301.97
2023-03-06T06:31:29.971Z,97300.00
2023-03-06T06:33:59.038Z,97310.31
2023-03-06T06:36:28.031Z,97318.28
2023-03-06T06:38:57.326Z,97313.50
2023-03-06T06:41:46.205Z,97311.91
2023-03-06T06:44:19.546Z,97306.34
2023-03-06T06:49:44.196Z,97309.09
2023-03-06T06:52:16.165Z,97313.88
2023-03-06T06:54:45.537Z,97309.50
2023-03-06T06:57:15.460Z,97321.00
2023-03-06T06:59:46.033Z,97315.41
2023-03-06T07:02:16.805Z,97306.22
2023-03-06T07:05:02.598Z,97311.78
2023-03-06T07:07:34.153Z,97307.78
2023-03-06T07:10:05.580Z,97304.56
2023-03-06T07:12:36.669Z,97304.44
2023-03-06T07:15:09.672Z,97315.50
2023-03-06T07:17:40.162Z,97302.34
2023-03-06T07:20:11.300Z,97304.28
2023-03-06T07:22:50.357Z,97301.91
2023-03-06T07:25:23.343Z,97310.63
2023-03-06T07:27:54.488Z,97315.34
2023-03-06T07:30:25.651Z,97312.19
2023-03-06T07:32:56.481Z,97311.38
2023-03-06T07:35:26.464Z,97315.72
2023-03-06T07:37:56.024Z,97318.53
2023-03-06T07:40:26.016Z,97318.06
2023-03-06T07:43:06.058Z,97313.69
2023-03-06T07:45:47.620Z,97314.84
2023-03-06T07:48:19.628Z,97313.59
2023-03-06T07:50:57.793Z,97307.16
2023-03-06T07:53:26.980Z,97307.44
2023-03-06T07:55:56.544Z,97304.56
2023-03-06T07:58:26.663Z,97302.06
2023-03-06T08:00:57.086Z,97309.88
2023-03-06T08:03:26.248Z,97311.19
2023-03-06T08:05:55.321Z,97295.59
2023-03-06T08:08:24.322Z,97290.66
2023-03-06T08:10:53.332Z,97293.81
2023-03-06T08:13:22.395Z,97288.03
2023-03-06T08:15:51.381Z,97291.84
2023-03-06T08:18:21.745Z,97296.28
2023-03-06T08:20:50.768Z,97294.38
2023-03-06T08:23:19.779Z,97295.59
2023-03-06T08:25:57.767Z,97293.53
2023-03-06T08:28:28.510Z,97296.47
2023-03-06T08:31:08.666Z,97291.56
2023-03-06T08:33:39.482Z,97288.94
2023-03-06T08:36:09.212Z,97278.59
2023-03-06T08:38:38.509Z,97291.38
2023-03-06T08:41:07.710Z,97292.59
2023-03-06T08:43:36.839Z,97292.47
2023-03-06T08:46:06.342Z,97292.84
2023-03-06T08:48:35.472Z,97286.84
2023-03-06T08:51:06.842Z,97282.69
2023-03-06T08:53:43.250Z,97277.94
2023-03-06T08:56:22.292Z,97277.34
2023-03-06T08:58:54.773Z,97276.69
2023-03-06T09:01:27.504Z,97275.59
2023-03-06T09:03:58.810Z,97276.22
2023-03-06T09:06:33.024Z,97263.09
2023-03-06T09:09:05.742Z,97272.13
2023-03-06T09:11:34.905Z,97270.09
2023-03-06T09:14:05.035Z,97276.28
2023-03-06T09:16:34.354Z,97271.09
2023-03-06T09:19:03.484Z,97276.16
2023-03-06T09:21:34.132Z,97263.84
2023-03-06T09:24:04.043Z,97264.91
2023-03-06T09:26:45.166Z,97267.19
2023-03-06T09:29:16.397Z,97267.78
2023-03-06T09:31:45.971Z,97265.78
2023-03-06T09:34:15.017Z,97276.38
2023-03-06T09:36:56.436Z,97265.56
2023-03-06T09:39:27.455Z,97257.28
2023-03-06T09:41:58.866Z,97255.50
2023-03-06T09:44:30.764Z,97263.47
2023-03-06T09:47:23.203Z,97250.41
2023-03-06T09:50:11.201Z,97250.41
2023-03-06T09:52:53.945Z,97242.22
2023-03-06T09:55:27.178Z,97254.03
2023-03-06T09:58:07.163Z,97249.31
2023-03-06T10:00:41.884Z,97251.31
2023-03-06T10:03:23.332Z,97246.72
2023-03-06T10:05:58.655Z,97240.84
2023-03-06T10:08:39.410Z,97230.81
2023-03-06T10:11:12.335Z,97236.69
2023-03-06T10:13:44.693Z,97235.63
2023-03-06T10:16:29.235Z,97236.00
2023-03-06T10:19:04.552Z,97230.94
2023-03-06T10:21:57.267Z,97233.97
2023-03-06T10:24:45.960Z,97230.88
2023-03-06T10:27:27.826Z,97225.59
2023-03-06T10:30:04.637Z,97228.84
2023-03-06T10:32:49.471Z,97229.84
2023-03-06T10:35:23.038Z,97224.19
2023-03-06T10:37:52.177Z,97214.22
2023-03-06T10:40:29.146Z,97217.78
2023-03-06T10:43:10.812Z,97217.63
2023-03-06T10:45:57.908Z,97206.34
2023-03-06T10:48:29.911Z,97199.56
2023-03-06T10:51:19.115Z,97194.31
2023-03-06T10:53:55.569Z,97194.38
2023-03-06T10:56:31.966Z,97183.41
2023-03-06T10:59:10.376Z,97194.16
2023-03-06T11:01:39.917Z,97190.09
2023-03-06T11:04:23.792Z,97188.94
2023-03-06T11:07:09.037Z,97190.25
2023-03-06T11:09:38.089Z,97184.66
2023-03-06T11:12:33.762Z,97183.06
2023-03-06T11:15:27.808Z,97182.84
2023-03-06T11:18:01.924Z,97175.84
2023-03-06T11:20:49.923Z,97165.38
2023-03-06T11:23:23.210Z,97167.16
2023-03-06T11:25:57.683Z,97167.75
2023-03-06T11:28:32.800Z,97161.91
2023-03-06T11:31:08.261Z,97159.03
2023-03-06T11:33:45.396Z,97154.16
2023-03-06T11:36:22.207Z,97153.97
2023-03-06T11:38:53.270Z,97145.56
2023-03-06T11:41:34.871Z,97139.88
2023-03-06T11:44:21.094Z,97141.66
2023-03-06T11:47:02.641Z,97133.84
2023-03-06T11:49:40.720Z,97122.91
2023-03-06T11:52:22.240Z,97122.38
2023-03-06T11:54:56.496Z,97116.47
2023-03-06T11:57:35.459Z,97119.63
2023-03-06T12:00:23.900Z,97105.75
2023-03-06T12:03:26.168Z,97098.59
2023-03-06T12:06:03.622Z,97103.31
2023-03-06T12:08:51.122Z,97103.69
2023-03-06T12:11:24.833Z,97100.94
2023-03-06T12:14:25.776Z,97104.75
2023-03-06T12:17:11.705Z,97100.75
2023-03-06T12:20:16.934Z,97099.34
2023-03-06T12:22:57.988Z,97095.56
2023-03-06T12:25:39.516Z,97100.38
2023-03-06T12:28:41.541Z,97086.75
2023-03-06T12:31:44.852Z,97091.94
2023-03-06T12:34:33.746Z,97088.56
2023-03-06T12:37:17.872Z,97093.06
2023-03-06T12:40:10.085Z,97090.56
2023-03-06T12:43:05.062Z,97091.38
2023-03-06T12:45:37.099Z,97094.19
2023-03-06T12:48:16.083Z,97091.03
2023-03-06T12:50:47.216Z,97088.13
2023-03-06T12:53:24.495Z,97092.88
2023-03-06T12:55:55.208Z,97089.38
2023-03-06T12:58:52.381Z,97089.94
2023-03-06T13:01:45.108Z,97088.81
2023-03-06T13:05:05.094Z,97083.19
2023-03-06T13:07:53.760Z,97086.41
2023-03-06T13:10:29.509Z,97087.03
2023-03-06T13:13:01.622Z,97084.81
2023-03-06T13:15:42.749Z,97084.69
2023-03-06T13:18:51.648Z,97079.16
2023-03-06T13:22:16.591Z,97080.84
2023-03-06T13:24:48.300Z,97071.63
2023-03-06T13:28:01.168Z,97074.09
2023-03-06T13:30:48.171Z,97068.25
2023-03-06T13:33:57.504Z,97073.88
2023-03-06T13:36:31.045Z,97066.22
2023-03-06T13:39:08.707Z,97078.38
2023-03-06T13:42:08.240Z,97073.88
2023-03-06T13:44:51.000Z,97070.75
2023-03-06T13:48:02.813Z,97062.63
2023-03-06T13:50:37.743Z,97061.28
2023-03-06T13:54:09.288Z,97064.81
2023-03-06T13:57:24.447Z,97064.34
2023-03-06T14:00:38.274Z,97056.22
2023-03-06T14:04:15.547Z,97050.06
2023-03-06T14:07:24.733Z,97049.09
2023-03-06T14:10:12.187Z,97042.34
2023-03-06T14:12:44.855Z,97042.41
2023-03-06T14:15:20.103Z,97047.13
2023-03-06T14:17:57.637Z,97045.09
2023-03-06T14:20:34.351Z,97050.94
2023-03-06T14:23:23.187Z,97047.31
2023-03-06T14:26:00.106Z,97047.69
2023-03-06T14:28:31.008Z,97051.50
2023-03-06T14:31:04.701Z,97040.13
2023-03-06T14:33:43.027Z,97038.06
2023-03-06T14:36:17.011Z,97029.50
2023-03-06T14:38:49.482Z,97032.94
2023-03-06T14:41:27.639Z,97039.41
2023-03-06T14:44:10.814Z,97032.34
2023-03-06T14:46:41.343Z,97034.03
2023-03-06T14:49:11.285Z,97037.34
2023-03-06T14:51:44.442Z,97029.38
2023-03-06T14:54:19.661Z,97031.91
2023-03-06T14:56:53.102Z,97040.84
2023-03-06T14:59:28.506Z,97029.84
2023-03-06T15:02:03.630Z,97033.16
2023-03-06T15:04:40.134Z,97029.66
2023-03-06T15:07:14.229Z,97034.13
2023-03-06T15:09:47.892Z,97027.72
2023-03-06T15:12:39.816Z,97028.94
2023-03-06T15:15:32.594Z,97033.84
2023-03-06T15:18:03.314Z,97034.94
2023-03-06T15:20:47.158Z,97033.84
2023-03-06T15:23:27.466Z,97029.13
2023-03-06T15:25:59.717Z,97042.91
2023-03-06T15:28:37.160Z,97033.81
2023-03-06T15:31:21.214Z,97041.53
2023-03-06T15:34:25.593Z,97038.38
2023-03-06T15:36:57.172Z,97035.06
2023-03-06T15:39:37.512Z,97025.78
2023-03-06T15:42:20.228Z,97036.31
2023-03-06T15:44:53.079Z,97032.13
2023-03-06T15:47:23.682Z,97031.06
2023-03-06T15:49:54.175Z,97030.53
2023-03-06T15:52:24.783Z,97029.13
2023-03-06T15:54:54.100Z,97037.47
2023-03-06T15:57:29.156Z,97039.84
2023-03-06T16:00:00.123Z,97035.63
2023-03-06T16:02:29.272Z,97034.22
2023-03-06T16:05:02.480Z,97036.16
2023-03-06T16:07:31.520Z,97039.78
2023-03-06T16:10:03.576Z,97038.19
2023-03-06T16:12:32.736Z,97047.75
2023-03-06T16:15:04.263Z,97043.19
2023-03-06T16:17:33.351Z,97051.63
2023-03-06T16:20:03.922Z,97049.63
2023-03-06T16:22:35.536Z,97041.06
2023-03-06T16:25:05.248Z,97048.09
2023-03-06T16:27:34.382Z,97042.47
2023-03-06T16:30:03.614Z,97048.19
2023-03-06T16:32:32.891Z,97048.06
2023-03-06T16:35:03.408Z,97044.03
2023-03-06T16:37:32.511Z,97040.66
2023-03-06T16:40:01.528Z,97038.34
2023-03-06T16:42:30.592Z,97043.22
2023-03-06T16:44:59.706Z,97042.13
2023-03-06T16:47:28.764Z,97037.97
2023-03-06T16:50:01.964Z,97044.56
2023-03-06T16:52:32.806Z,97040.66
2023-03-06T16:55:02.050Z,97040.66
2023-03-06T16:57:35.865Z,97036.28
2023-03-06T17:00:08.379Z,97039.19
2023-03-06T17:02:38.637Z,97048.88
2023-03-06T17:05:12.297Z,97048.19
2023-03-06T17:07:48.417Z,97047.47
2023-03-06T17:10:22.922Z,97054.03
2023-03-06T17:12:52.422Z,97046.13
2023-03-06T17:15:22.124Z,97046.84
2023-03-06T17:17:51.762Z,97048.44
2023-03-06T17:20:23.747Z,97044.91
2023-03-06T17:22:54.324Z,97055.72
2023-03-06T17:25:25.802Z,97061.25
2023-03-06T17:27:54.978Z,97059.28
2023-03-06T17:30:24.020Z,97066.03
2023-03-06T17:32:53.712Z,97072.47
2023-03-06T17:35:22.915Z,97065.88
2023-03-06T17:37:54.252Z,97079.81
2023-03-06T17:40:25.757Z,97067.81
2023-03-06T17:42:54.906Z,97075.03
2023-03-06T17:45:23.941Z,97082.25
2023-03-06T17:47:55.472Z,97077.56
2023-03-06T17:50:24.686Z,97076.00
2023-03-06T17:52:55.290Z,97072.78
2023-03-06T17:55:24.279Z,97079.13
2023-03-06T17:57:53.547Z,97077.53
2023-03-06T18:00:24.095Z,97082.38
2023-03-06T18:02:53.299Z,97076.84
2023-03-06T18:05:22.336Z,97069.72
2023-03-06T18:07:51.413Z,97072.97
2023-03-06T18:10:22.326Z,97066.59
2023-03-06T18:12:52.994Z,97069.75
2023-03-06T18:15:22.302Z,97078.19
2023-03-06T18:17:51.647Z,97084.22
2023-03-06T18:20:20.979Z,97079.47
2023-03-06T18:22:50.089Z,97082.34
2023-03-06T18:25:19.241Z,97084.50
2023-03-06T18:27:49.671Z,97090.91
2023-03-06T18:30:19.587Z,97089.31
2023-03-06T18:32:50.993Z,97102.06
2023-03-06T18:35:23.171Z,97102.97
2023-03-06T18:37:53.162Z,97103.00
2023-03-06T18:40:24.796Z,97110.88
2023-03-06T18:42:55.683Z,97108.03
2023-03-06T18:45:25.634Z,97119.63
2023-03-06T18:47:56.188Z,97117.59
2023-03-06T18:50:25.273Z,97117.97
2023-03-06T18:52:54.332Z,97115.91
2023-03-06T18:55:23.558Z,97094.09
2023-03-06T18:57:54.017Z,97092.56
2023-03-06T19:00:24.241Z,97095.81
2023-03-06T19:02:57.099Z,97091.16
2023-03-06T19:05:26.272Z,97094.38
2023-03-06T19:07:56.341Z,97095.22
2023-03-06T19:10:27.423Z,97099.19
2023-03-06T19:13:00.874Z,97098.72
2023-03-06T19:15:30.521Z,97108.75
2023-03-06T19:18:00.283Z,97104.78
2023-03-06T19:20:29.361Z,97111.88
2023-03-06T19:22:58.435Z,97113.47
2023-03-06T19:25:28.720Z,97113.47
2023-03-06T19:28:00.053Z,97112.25
2023-03-06T19:30:34.388Z,97122.22
2023-03-06T19:33:05.987Z,97125.84
2023-03-06T19:35:37.904Z,97126.25
2023-03-06T19:38:14.231Z,97131.84
2023-03-06T19:40:50.707Z,97134.34
2023-03-06T19:43:30.820Z,97140.78
2023-03-06T19:46:07.005Z,97128.13
2023-03-06T19:48:36.761Z,97139.28
2023-03-06T19:51:07.076Z,97143.22
2023-03-06T19:53:36.854Z,97155.19
2023-03-06T19:56:08.639Z,97153.56
2023-03-06T19:58:40.720Z,97164.69
2023-03-06T20:01:13.705Z,97151.84
2023-03-06T20:03:43.160Z,97148.75
2023-03-06T20:06:16.407Z,97147.16
2023-03-06T20:08:46.988Z,97144.66
2023-03-06T20:11:17.831Z,97142.28
2023-03-06T20:13:48.831Z,97141.81
2023-03-06T20:16:19.660Z,97155.84
2023-03-06T20:18:48.982Z,97144.66
2023-03-06T20:21:18.253Z,97154.31
2023-03-06T20:23:47.335Z,97148.84
2023-03-06T20:26:17.096Z,97149.69
2023-03-06T20:28:46.328Z,97150.84
2023-03-06T20:31:21.973Z,97145.69
2023-03-06T20:33:53.939Z,97148.94
2023-03-06T20:36:29.049Z,97147.78
2023-03-06T20:39:03.041Z,97155.66
2023-03-06T20:41:35.800Z,97154.88
2023-03-06T20:44:08.181Z,97164.09
2023-03-06T20:46:38.937Z,97176.06
2023-03-06T20:49:09.895Z,97173.72
2023-03-06T20:51:45.485Z,97180.84
2023-03-06T20:54:17.526Z,97171.28
2023-03-06T20:56:50.204Z,97167.34
2023-03-06T20:59:19.814Z,97174.53
2023-03-06T21:01:50.420Z,97176.09
2023-03-06T21:04:20.455Z,97164.94
2023-03-06T21:06:49.484Z,97154.59
2023-03-06T21:09:18.895Z,97159.38
2023-03-06T21:11:48.390Z,97161.75
2023-03-06T21:14:20.199Z,97167.75
2023-03-06T21:16:50.595Z,97166.50
2023-03-06T21:19:29.185Z,97172.94
2023-03-06T21:21:58.252Z,97179.59
2023-03-06T21:24:27.352Z,97180.44
2023-03-06T21:26:56.420Z,97185.63
2023-03-06T21:29:25.571Z,97180.91
2023-03-06T21:31:56.087Z,97179.75
2023-03-06T21:34:26.728Z,97172.19
2023-03-06T21:36:56.027Z,97178.56
2023-03-06T21:39:25.729Z,97175.03
2023-03-06T21:41:57.270Z,97183.41
2023-03-06T21:44:26.313Z,97183.72
2023-03-06T21:46:57.964Z,97192.06
2023-03-06T21:49:29.524Z,97177.72
2023-03-06T21:51:58.702Z,97177.41
2023-03-06T21:54:29.315Z,97170.66
2023-03-06T21:56:58.481Z,97175.41
2023-03-06T21:59:30.189Z,97163.50
2023-03-06T22:02:00.718Z,97174.56
2023-03-06T22:04:29.753Z,97172.97
2023-03-06T22:06:58.822Z,97165.06
2023-03-06T22:09:27.836Z,97159.13
2023-03-06T22:11:57.382Z,97171.06
2023-03-06T22:14:30.097Z,97179.41
2023-03-06T22:17:00.560Z,97175.75
2023-03-06T22:19:29.882Z,97174.19
2023-03-06T22:21:58.978Z,97179.00
2023-03-06T22:24:28.513Z,97168.28
2023-03-06T22:26:59.318Z,97165.13
2023-03-06T22:29:28.394Z,97161.53
2023-03-06T22:31:57.486Z,97167.50
2023-03-06T22:34:28.325Z,97165.91
2023-03-06T22:36:57.440Z,97168.66
2023-03-06T22:39:26.515Z,97172.22
2023-03-06T22:41:56.485Z,97171.88
2023-03-06T22:44:42.401Z,97164.31
2023-03-06T22:47:11.453Z,97175.44
2023-03-06T22:49:42.047Z,97169.06
2023-03-06T22:52:15.147Z,97173.84
2023-03-06T22:54:44.304Z,97172.66
2023-03-06T22:57:13.550Z,97169.09
2023-03-06T22:59:45.849Z,97170.72
2023-03-06T23:02:17.900Z,97174.75
2023-03-06T23:04:52.255Z,97173.19
2023-03-06T23:07:21.905Z,97172.06
2023-03-06T23:09:52.308Z,97157.88
2023-03-06T23:12:44.108Z,97151.22
2023-03-06T23:15:31.850Z,97149.69
2023-03-06T23:18:22.547Z,97148.13
2023-03-06T23:21:14.240Z,97155.28
2023-03-06T23:24:05.276Z,97146.22
2023-03-06T23:26:35.427Z,97140.28
2023-03-06T23:29:07.802Z,97154.59
2023-03-06T23:31:37.430Z,97153.44
2023-03-06T23:34:06.645Z,97152.25
2023-03-06T23:36:39.095Z,97165.31
2023-03-06T23:39:08.157Z,97179.16
2023-03-06T23:41:37.885Z,97186.69
2023-03-06T23:44:07.311Z,97182.38
2023-03-06T23:46:36.377Z,97170.47
2023-03-06T23:49:06.280Z,97175.25
2023-03-06T23:51:36.779Z,97181.59
2023-03-06T23:54:06.950Z,97189.94
2023-03-06T23:56:36.084Z,97185.94
2023-03-06T23:59:05.117Z,97194.25
